sensor_id;sensor_type;location;lat;lon;timestamp;P1;durP1;ratioP1;P2;durP2;ratioP2
29814;SDS011;16708;50.426;7.664;2022-11-14T00:04:48;7.40;;;3.10;;
29814;SDS011;16708;50.426;7.664;2022-11-14T00:09:42;9.10;;;3.50;;
29814;SDS011;16708;50.426;7.664;2022-11-14T00:14:34;6.10;;;3.50;;
29814;SDS011;16708;50.426;7.664;2022-11-14T00:19:28;8.10;;;3.40;;
29814;SDS011;16708;50.426;7.664;2022-11-14T00:24:22;8.70;;;4.30;;
29814;SDS011;16708;50.426;7.664;2022-11-14T00:29:17;5.00;;;3.00;;
29814;SDS011;16708;50.426;7.664;2022-11-14T00:34:11;6.40;;;3.40;;
29814;SDS011;16708;50.426;7.664;2022-11-14T00:39:03;6.00;;;3.40;;
29814;SDS011;16708;50.426;7.664;2022-11-14T00:43:58;7.70;;;3.70;;
29814;SDS011;16708;50.426;7.664;2022-11-14T00:48:52;6.10;;;3.40;;
29814;SDS011;16708;50.426;7.664;2022-11-14T00:53:46;5.40;;;3.00;;
29814;SDS011;16708;50.426;7.664;2022-11-14T00:58:41;9.10;;;3.90;;
29814;SDS011;16708;50.426;7.664;2022-11-14T01:03:34;6.30;;;3.50;;
29814;SDS011;16708;50.426;7.664;2022-11-14T01:08:28;8.50;;;4.40;;
29814;SDS011;16708;50.426;7.664;2022-11-14T01:13:22;7.20;;;4.20;;
29814;SDS011;16708;50.426;7.664;2022-11-14T01:18:17;6.40;;;3.60;;
29814;SDS011;16708;50.426;7.664;2022-11-14T01:23:11;7.70;;;4.10;;
29814;SDS011;16708;50.426;7.664;2022-11-14T01:28:05;9.00;;;4.70;;
29814;SDS011;16708;50.426;7.664;2022-11-14T01:32:59;9.80;;;4.80;;
29814;SDS011;16708;50.426;7.664;2022-11-14T01:37:54;8.70;;;4.90;;
29814;SDS011;16708;50.426;7.664;2022-11-14T01:47:42;11.40;;;5.60;;
29814;SDS011;16708;50.426;7.664;2022-11-14T01:52:34;12.40;;;6.20;;
29814;SDS011;16708;50.426;7.664;2022-11-14T01:57:28;10.40;;;5.80;;
29814;SDS011;16708;50.426;7.664;2022-11-14T02:02:23;11.60;;;6.30;;
29814;SDS011;16708;50.426;7.664;2022-11-14T02:07:17;12.20;;;5.70;;
29814;SDS011;16708;50.426;7.664;2022-11-14T02:12:11;10.50;;;5.60;;
29814;SDS011;16708;50.426;7.664;2022-11-14T02:22:00;13.40;;;6.50;;
29814;SDS011;16708;50.426;7.664;2022-11-14T02:26:53;12.70;;;6.80;;
29814;SDS011;16708;50.426;7.664;2022-11-14T02:31:47;13.10;;;6.50;;
29814;SDS011;16708;50.426;7.664;2022-11-14T02:36:41;12.50;;;6.40;;
29814;SDS011;16708;50.426;7.664;2022-11-14T02:41:35;11.90;;;6.40;;
29814;SDS011;16708;50.426;7.664;2022-11-14T02:46:29;12.20;;;6.30;;
29814;SDS011;16708;50.426;7.664;2022-11-14T02:51:23;11.20;;;6.20;;
29814;SDS011;16708;50.426;7.664;2022-11-14T02:56:18;15.30;;;7.20;;
29814;SDS011;16708;50.426;7.664;2022-11-14T03:01:11;12.70;;;6.80;;
29814;SDS011;16708;50.426;7.664;2022-11-14T03:06:06;14.80;;;7.10;;
29814;SDS011;16708;50.426;7.664;2022-11-14T03:10:59;15.30;;;7.90;;
29814;SDS011;16708;50.426;7.664;2022-11-14T03:15:53;16.70;;;7.40;;
29814;SDS011;16708;50.426;7.664;2022-11-14T03:20:47;12.10;;;7.00;;
29814;SDS011;16708;50.426;7.664;2022-11-14T03:25:41;14.60;;;7.40;;
29814;SDS011;16708;50.426;7.664;2022-11-14T03:30:36;13.30;;;7.30;;
29814;SDS011;16708;50.426;7.664;2022-11-14T03:35:30;14.10;;;7.30;;
29814;SDS011;16708;50.426;7.664;2022-11-14T03:40:22;17.90;;;8.10;;
29814;SDS011;16708;50.426;7.664;2022-11-14T03:45:16;14.90;;;7.40;;
29814;SDS011;16708;50.426;7.664;2022-11-14T03:50:10;14.00;;;7.20;;
29814;SDS011;16708;50.426;7.664;2022-11-14T03:55:04;15.50;;;7.80;;
29814;SDS011;16708;50.426;7.664;2022-11-14T03:59:58;15.90;;;7.80;;
29814;SDS011;16708;50.426;7.664;2022-11-14T04:04:52;13.10;;;7.00;;
29814;SDS011;16708;50.426;7.664;2022-11-14T04:09:46;17.00;;;9.20;;
29814;SDS011;16708;50.426;7.664;2022-11-14T04:14:43;17.90;;;8.50;;
29814;SDS011;16708;50.426;7.664;2022-11-14T04:19:34;15.10;;;7.60;;
29814;SDS011;16708;50.426;7.664;2022-11-14T04:24:28;14.70;;;7.00;;
29814;SDS011;16708;50.426;7.664;2022-11-14T04:29:21;13.60;;;7.40;;
29814;SDS011;16708;50.426;7.664;2022-11-14T04:34:15;14.10;;;6.90;;
29814;SDS011;16708;50.426;7.664;2022-11-14T04:39:09;16.90;;;8.80;;
29814;SDS011;16708;50.426;7.664;2022-11-14T04:44:01;17.30;;;8.50;;
29814;SDS011;16708;50.426;7.664;2022-11-14T04:48:55;18.30;;;9.70;;
29814;SDS011;16708;50.426;7.664;2022-11-14T04:53:50;22.20;;;11.40;;
29814;SDS011;16708;50.426;7.664;2022-11-14T04:58:44;22.90;;;10.80;;
29814;SDS011;16708;50.426;7.664;2022-11-14T05:03:38;20.80;;;10.80;;
29814;SDS011;16708;50.426;7.664;2022-11-14T05:08:32;20.10;;;9.40;;
29814;SDS011;16708;50.426;7.664;2022-11-14T05:13:26;19.70;;;9.90;;
29814;SDS011;16708;50.426;7.664;2022-11-14T05:18:21;17.60;;;9.20;;
29814;SDS011;16708;50.426;7.664;2022-11-14T05:23:14;17.00;;;9.10;;
29814;SDS011;16708;50.426;7.664;2022-11-14T05:28:08;17.90;;;8.40;;
29814;SDS011;16708;50.426;7.664;2022-11-14T05:33:03;18.20;;;8.70;;
29814;SDS011;16708;50.426;7.664;2022-11-14T05:37:57;17.00;;;8.70;;
29814;SDS011;16708;50.426;7.664;2022-11-14T05:42:52;16.00;;;8.90;;
29814;SDS011;16708;50.426;7.664;2022-11-14T05:47:47;20.00;;;9.20;;
29814;SDS011;16708;50.426;7.664;2022-11-14T05:52:41;20.20;;;10.10;;
29814;SDS011;16708;50.426;7.664;2022-11-14T05:57:38;24.50;;;12.90;;
29814;SDS011;16708;50.426;7.664;2022-11-14T06:02:29;21.90;;;12.00;;
29814;SDS011;16708;50.426;7.664;2022-11-14T06:07:20;26.10;;;13.20;;
29814;SDS011;16708;50.426;7.664;2022-11-14T06:12:15;30.60;;;14.20;;
29814;SDS011;16708;50.426;7.664;2022-11-14T06:17:09;30.60;;;14.30;;
29814;SDS011;16708;50.426;7.664;2022-11-14T06:22:03;31.30;;;14.20;;
29814;SDS011;16708;50.426;7.664;2022-11-14T06:26:56;32.30;;;14.00;;
29814;SDS011;16708;50.426;7.664;2022-11-14T06:31:49;35.90;;;16.10;;
29814;SDS011;16708;50.426;7.664;2022-11-14T06:36:42;40.00;;;16.80;;
29814;SDS011;16708;50.426;7.664;2022-11-14T06:41:35;38.20;;;16.10;;
29814;SDS011;16708;50.426;7.664;2022-11-14T06:46:28;39.40;;;16.70;;
29814;SDS011;16708;50.426;7.664;2022-11-14T06:51:22;34.90;;;15.80;;
29814;SDS011;16708;50.426;7.664;2022-11-14T06:56:17;36.50;;;16.20;;
29814;SDS011;16708;50.426;7.664;2022-11-14T07:01:11;37.60;;;16.70;;
29814;SDS011;16708;50.426;7.664;2022-11-14T07:06:06;44.50;;;17.40;;
29814;SDS011;16708;50.426;7.664;2022-11-14T07:11:03;44.20;;;17.70;;
29814;SDS011;16708;50.426;7.664;2022-11-14T07:15:53;41.20;;;16.40;;
29814;SDS011;16708;50.426;7.664;2022-11-14T07:20:47;39.60;;;15.80;;
29814;SDS011;16708;50.426;7.664;2022-11-14T07:25:40;43.00;;;18.70;;
29814;SDS011;16708;50.426;7.664;2022-11-14T07:30:34;40.50;;;15.90;;
29814;SDS011;16708;50.426;7.664;2022-11-14T07:35:28;38.30;;;16.30;;
29814;SDS011;16708;50.426;7.664;2022-11-14T07:40:23;41.30;;;16.60;;
29814;SDS011;16708;50.426;7.664;2022-11-14T07:45:18;38.30;;;15.10;;
29814;SDS011;16708;50.426;7.664;2022-11-14T07:50:12;37.40;;;15.20;;
29814;SDS011;16708;50.426;7.664;2022-11-14T07:55:06;38.30;;;15.20;;
29814;SDS011;16708;50.426;7.664;2022-11-14T08:00:00;36.50;;;15.30;;
29814;SDS011;16708;50.426;7.664;2022-11-14T08:04:55;44.30;;;17.60;;
29814;SDS011;16708;50.426;7.664;2022-11-14T08:09:48;49.50;;;19.20;;
29814;SDS011;16708;50.426;7.664;2022-11-14T08:14:43;37.50;;;15.60;;
29814;SDS011;16708;50.426;7.664;2022-11-14T08:19:35;41.20;;;17.30;;
29814;SDS011;16708;50.426;7.664;2022-11-14T08:24:29;36.90;;;15.70;;
29814;SDS011;16708;50.426;7.664;2022-11-14T08:29:24;35.20;;;14.60;;
29814;SDS011;16708;50.426;7.664;2022-11-14T08:34:18;34.30;;;14.10;;
29814;SDS011;16708;50.426;7.664;2022-11-14T08:39:13;31.90;;;13.70;;
29814;SDS011;16708;50.426;7.664;2022-11-14T08:44:07;31.50;;;14.10;;
29814;SDS011;16708;50.426;7.664;2022-11-14T08:49:02;33.20;;;15.30;;
29814;SDS011;16708;50.426;7.664;2022-11-14T08:53:56;31.90;;;13.90;;
29814;SDS011;16708;50.426;7.664;2022-11-14T08:58:51;29.40;;;12.80;;
29814;SDS011;16708;50.426;7.664;2022-11-14T09:03:45;27.20;;;12.20;;
29814;SDS011;16708;50.426;7.664;2022-11-14T09:08:40;32.00;;;13.30;;
29814;SDS011;16708;50.426;7.664;2022-11-14T09:13:34;28.90;;;13.80;;
29814;SDS011;16708;50.426;7.664;2022-11-14T09:18:28;34.10;;;14.50;;
29814;SDS011;16708;50.426;7.664;2022-11-14T09:23:22;39.80;;;15.90;;
29814;SDS011;16708;50.426;7.664;2022-11-14T09:28:17;29.80;;;13.80;;
29814;SDS011;16708;50.426;7.664;2022-11-14T09:33:13;31.60;;;13.90;;
29814;SDS011;16708;50.426;7.664;2022-11-14T09:38:03;30.30;;;13.90;;
29814;SDS011;16708;50.426;7.664;2022-11-14T09:42:58;30.50;;;13.40;;
29814;SDS011;16708;50.426;7.664;2022-11-14T09:47:53;32.50;;;13.80;;
29814;SDS011;16708;50.426;7.664;2022-11-14T09:52:46;36.20;;;15.20;;
29814;SDS011;16708;50.426;7.664;2022-11-14T09:57:41;33.60;;;15.00;;
29814;SDS011;16708;50.426;7.664;2022-11-14T10:07:29;37.00;;;16.00;;
29814;SDS011;16708;50.426;7.664;2022-11-14T10:17:17;34.10;;;14.30;;
29814;SDS011;16708;50.426;7.664;2022-11-14T10:22:14;38.40;;;15.60;;
29814;SDS011;16708;50.426;7.664;2022-11-14T10:27:05;35.70;;;14.40;;
29814;SDS011;16708;50.426;7.664;2022-11-14T10:31:57;31.90;;;14.20;;
29814;SDS011;16708;50.426;7.664;2022-11-14T10:36:52;36.80;;;14.70;;
29814;SDS011;16708;50.426;7.664;2022-11-14T10:41:46;33.20;;;14.40;;
29814;SDS011;16708;50.426;7.664;2022-11-14T10:46:40;32.30;;;14.20;;
29814;SDS011;16708;50.426;7.664;2022-11-14T10:51:34;35.10;;;14.70;;
29814;SDS011;16708;50.426;7.664;2022-11-14T11:01:23;32.90;;;14.50;;
29814;SDS011;16708;50.426;7.664;2022-11-14T11:06:19;27.80;;;12.80;;
29814;SDS011;16708;50.426;7.664;2022-11-14T11:21:00;24.50;;;12.10;;
29814;SDS011;16708;50.426;7.664;2022-11-14T11:25:53;22.70;;;11.50;;
29814;SDS011;16708;50.426;7.664;2022-11-14T11:30:47;24.70;;;11.60;;
29814;SDS011;16708;50.426;7.664;2022-11-14T11:35:41;24.50;;;11.60;;
29814;SDS011;16708;50.426;7.664;2022-11-14T11:40:35;26.30;;;12.10;;
29814;SDS011;16708;50.426;7.664;2022-11-14T11:45:29;35.70;;;15.00;;
29814;SDS011;16708;50.426;7.664;2022-11-14T11:50:23;23.70;;;11.90;;
29814;SDS011;16708;50.426;7.664;2022-11-14T11:55:18;23.70;;;11.20;;
29814;SDS011;16708;50.426;7.664;2022-11-14T12:00:12;23.40;;;11.50;;
29814;SDS011;16708;50.426;7.664;2022-11-14T12:05:07;21.40;;;10.70;;
29814;SDS011;16708;50.426;7.664;2022-11-14T12:29:36;21.80;;;11.70;;
29814;SDS011;16708;50.426;7.664;2022-11-14T12:34:28;21.50;;;10.70;;
29814;SDS011;16708;50.426;7.664;2022-11-14T12:39:23;20.60;;;10.50;;
29814;SDS011;16708;50.426;7.664;2022-11-14T12:44:16;20.10;;;10.50;;
29814;SDS011;16708;50.426;7.664;2022-11-14T12:49:11;21.00;;;10.60;;
29814;SDS011;16708;50.426;7.664;2022-11-14T12:54:04;18.80;;;9.70;;
29814;SDS011;16708;50.426;7.664;2022-11-14T12:58:59;20.20;;;10.30;;
29814;SDS011;16708;50.426;7.664;2022-11-14T13:28:25;18.00;;;9.80;;
29814;SDS011;16708;50.426;7.664;2022-11-14T13:33:19;22.70;;;11.10;;
29814;SDS011;16708;50.426;7.664;2022-11-14T13:38:12;18.60;;;9.70;;
29814;SDS011;16708;50.426;7.664;2022-11-14T13:48:01;34.90;;;15.20;;
29814;SDS011;16708;50.426;7.664;2022-11-14T13:52:54;23.60;;;11.40;;
29814;SDS011;16708;50.426;7.664;2022-11-14T14:02:42;17.00;;;9.10;;
29814;SDS011;16708;50.426;7.664;2022-11-14T14:07:37;18.70;;;9.50;;
29814;SDS011;16708;50.426;7.664;2022-11-14T14:17:24;15.90;;;9.10;;
29814;SDS011;16708;50.426;7.664;2022-11-14T14:22:19;16.00;;;8.90;;
29814;SDS011;16708;50.426;7.664;2022-11-14T14:27:13;18.20;;;10.10;;
29814;SDS011;16708;50.426;7.664;2022-11-14T14:37:00;18.80;;;9.80;;
29814;SDS011;16708;50.426;7.664;2022-11-14T14:41:53;18.90;;;10.40;;
29814;SDS011;16708;50.426;7.664;2022-11-14T14:46:48;18.50;;;9.20;;
29814;SDS011;16708;50.426;7.664;2022-11-14T14:51:41;16.70;;;9.30;;
29814;SDS011;16708;50.426;7.664;2022-11-14T14:56:35;17.50;;;8.90;;
29814;SDS011;16708;50.426;7.664;2022-11-14T15:01:30;19.20;;;9.60;;
29814;SDS011;16708;50.426;7.664;2022-11-14T15:06:24;21.80;;;10.80;;
29814;SDS011;16708;50.426;7.664;2022-11-14T15:11:18;25.40;;;12.00;;
29814;SDS011;16708;50.426;7.664;2022-11-14T15:16:12;20.20;;;10.50;;
29814;SDS011;16708;50.426;7.664;2022-11-14T15:26:00;18.40;;;10.20;;
29814;SDS011;16708;50.426;7.664;2022-11-14T15:45:37;33.80;;;14.90;;
29814;SDS011;16708;50.426;7.664;2022-11-14T15:50:31;26.70;;;12.40;;
29814;SDS011;16708;50.426;7.664;2022-11-14T15:55:25;19.50;;;11.30;;
29814;SDS011;16708;50.426;7.664;2022-11-14T16:00:20;17.00;;;9.80;;
29814;SDS011;16708;50.426;7.664;2022-11-14T16:05:13;20.10;;;10.90;;
29814;SDS011;16708;50.426;7.664;2022-11-14T16:10:08;15.50;;;8.50;;
29814;SDS011;16708;50.426;7.664;2022-11-14T16:15:00;15.10;;;8.70;;
29814;SDS011;16708;50.426;7.664;2022-11-14T16:19:54;21.90;;;10.90;;
29814;SDS011;16708;50.426;7.664;2022-11-14T16:24:48;16.80;;;8.90;;
29814;SDS011;16708;50.426;7.664;2022-11-14T16:29:42;18.50;;;9.10;;
29814;SDS011;16708;50.426;7.664;2022-11-14T16:34:39;19.40;;;10.10;;
29814;SDS011;16708;50.426;7.664;2022-11-14T16:39:30;27.20;;;13.40;;
29814;SDS011;16708;50.426;7.664;2022-11-14T16:44:25;16.80;;;8.70;;
29814;SDS011;16708;50.426;7.664;2022-11-14T16:49:19;17.60;;;9.10;;
29814;SDS011;16708;50.426;7.664;2022-11-14T16:54:13;17.20;;;9.00;;
29814;SDS011;16708;50.426;7.664;2022-11-14T16:59:08;14.70;;;8.10;;
29814;SDS011;16708;50.426;7.664;2022-11-14T17:04:02;17.30;;;9.10;;
29814;SDS011;16708;50.426;7.664;2022-11-14T17:08:57;15.00;;;8.10;;
29814;SDS011;16708;50.426;7.664;2022-11-14T17:13:50;14.00;;;7.90;;
29814;SDS011;16708;50.426;7.664;2022-11-14T17:18:44;14.70;;;8.00;;
29814;SDS011;16708;50.426;7.664;2022-11-14T17:23:36;19.00;;;9.80;;
29814;SDS011;16708;50.426;7.664;2022-11-14T17:28:31;14.60;;;8.40;;
29814;SDS011;16708;50.426;7.664;2022-11-14T17:33:25;16.00;;;7.80;;
29814;SDS011;16708;50.426;7.664;2022-11-14T17:38:19;15.10;;;8.00;;
29814;SDS011;16708;50.426;7.664;2022-11-14T17:43:12;17.00;;;8.70;;
29814;SDS011;16708;50.426;7.664;2022-11-14T17:48:06;18.70;;;9.50;;
29814;SDS011;16708;50.426;7.664;2022-11-14T17:53:01;15.10;;;8.70;;
29814;SDS011;16708;50.426;7.664;2022-11-14T17:57:57;14.50;;;7.20;;
29814;SDS011;16708;50.426;7.664;2022-11-14T18:02:49;13.40;;;7.70;;
29814;SDS011;16708;50.426;7.664;2022-11-14T18:07:43;11.80;;;6.50;;
29814;SDS011;16708;50.426;7.664;2022-11-14T18:12:37;10.60;;;5.70;;
29814;SDS011;16708;50.426;7.664;2022-11-14T18:17:31;12.10;;;6.00;;
29814;SDS011;16708;50.426;7.664;2022-11-14T18:22:26;10.40;;;6.00;;
29814;SDS011;16708;50.426;7.664;2022-11-14T18:27:20;12.20;;;5.70;;
29814;SDS011;16708;50.426;7.664;2022-11-14T18:32:14;11.10;;;5.50;;
29814;SDS011;16708;50.426;7.664;2022-11-14T18:37:08;11.60;;;5.20;;
29814;SDS011;16708;50.426;7.664;2022-11-14T18:42:03;8.80;;;5.00;;
29814;SDS011;16708;50.426;7.664;2022-11-14T18:46:56;8.80;;;5.50;;
29814;SDS011;16708;50.426;7.664;2022-11-14T18:51:50;11.70;;;7.10;;
29814;SDS011;16708;50.426;7.664;2022-11-14T18:56:45;9.40;;;5.10;;
29814;SDS011;16708;50.426;7.664;2022-11-14T19:01:38;9.00;;;4.80;;
29814;SDS011;16708;50.426;7.664;2022-11-14T19:06:31;10.20;;;5.40;;
29814;SDS011;16708;50.426;7.664;2022-11-14T19:11:26;7.60;;;4.80;;
29814;SDS011;16708;50.426;7.664;2022-11-14T19:16:20;10.00;;;5.60;;
29814;SDS011;16708;50.426;7.664;2022-11-14T19:21:14;7.70;;;4.20;;
29814;SDS011;16708;50.426;7.664;2022-11-14T19:26:08;8.40;;;5.20;;
29814;SDS011;16708;50.426;7.664;2022-11-14T19:31:03;8.30;;;4.40;;
29814;SDS011;16708;50.426;7.664;2022-11-14T19:35:57;8.50;;;4.20;;
29814;SDS011;16708;50.426;7.664;2022-11-14T19:40:52;8.50;;;5.30;;
29814;SDS011;16708;50.426;7.664;2022-11-14T19:45:46;9.20;;;5.00;;
29814;SDS011;16708;50.426;7.664;2022-11-14T19:50:40;7.70;;;4.90;;
29814;SDS011;16708;50.426;7.664;2022-11-14T19:55:33;8.40;;;4.70;;
29814;SDS011;16708;50.426;7.664;2022-11-14T20:00:27;9.20;;;5.10;;
29814;SDS011;16708;50.426;7.664;2022-11-14T20:05:19;7.30;;;4.40;;
29814;SDS011;16708;50.426;7.664;2022-11-14T20:10:13;11.50;;;6.30;;
29814;SDS011;16708;50.426;7.664;2022-11-14T20:15:07;11.80;;;5.90;;
29814;SDS011;16708;50.426;7.664;2022-11-14T20:20:02;13.80;;;8.20;;
29814;SDS011;16708;50.426;7.664;2022-11-14T20:24:56;13.40;;;6.80;;
29814;SDS011;16708;50.426;7.664;2022-11-14T20:29:50;8.30;;;5.10;;
29814;SDS011;16708;50.426;7.664;2022-11-14T20:34:43;9.50;;;5.90;;
29814;SDS011;16708;50.426;7.664;2022-11-14T20:39:38;16.20;;;7.90;;
29814;SDS011;16708;50.426;7.664;2022-11-14T20:44:32;10.90;;;5.70;;
29814;SDS011;16708;50.426;7.664;2022-11-14T20:49:26;16.60;;;8.30;;
29814;SDS011;16708;50.426;7.664;2022-11-14T20:54:21;31.60;;;12.10;;
29814;SDS011;16708;50.426;7.664;2022-11-14T20:59:15;15.20;;;8.10;;
29814;SDS011;16708;50.426;7.664;2022-11-14T21:13:42;19.40;;;9.20;;
29814;SDS011;16708;50.426;7.664;2022-11-14T21:18:37;18.10;;;8.60;;
29814;SDS011;16708;50.426;7.664;2022-11-14T21:23:32;19.00;;;9.70;;
29814;SDS011;16708;50.426;7.664;2022-11-14T21:38:09;21.80;;;10.60;;
29814;SDS011;16708;50.426;7.664;2022-11-14T21:43:01;21.90;;;10.80;;
29814;SDS011;16708;50.426;7.664;2022-11-14T21:57:39;22.10;;;10.60;;
29814;SDS011;16708;50.426;7.664;2022-11-14T22:02:34;19.10;;;10.00;;
29814;SDS011;16708;50.426;7.664;2022-11-14T22:17:08;22.60;;;9.20;;
29814;SDS011;16708;50.426;7.664;2022-11-14T22:22:03;16.90;;;9.90;;
29814;SDS011;16708;50.426;7.664;2022-11-14T22:36:40;18.50;;;9.30;;
29814;SDS011;16708;50.426;7.664;2022-11-14T22:51:19;17.00;;;8.20;;
29814;SDS011;16708;50.426;7.664;2022-11-14T23:05:56;16.60;;;8.70;;
29814;SDS011;16708;50.426;7.664;2022-11-14T23:10:51;30.40;;;14.30;;
29814;SDS011;16708;50.426;7.664;2022-11-14T23:25:28;19.70;;;11.50;;
29814;SDS011;16708;50.426;7.664;2022-11-14T23:40:07;15.10;;;9.20;;
29814;SDS011;16708;50.426;7.664;2022-11-14T23:54:46;15.20;;;7.30;;
